Accueil
METAR-TAF:

METAR-TAF

Aéroports :

Port Heiden, Alaska, États-Unis

latitude: 56-57N, longitude: 158-38W, altitude: 29 m

Observation

Le bulletin a été fait il y a 1 heure et 5 minutes, à 17:56 UTC
Vent 5 kt de nord/nord-ouest
Température 8°C
Humidité 100%
Pression 1002 hPa
Visibilité: 16.1 km
Nuages fragmentés à une hauteur de 600 ft
Ciel couvert à une hauteur de 1000 ft
pluie faible

METAR: PAPH 131756Z AUTO 33005KT 10SM -RA BKN006 OVC010 08/08 A2959 RMK AO2 CIG 004V009 SLP020 P0002 60009 T00830078 10083 20078 55008 $

Heure: 11:01 (19:01 UTC)


TAF: absent

Observations et prévisions météorologiques de plus de 4000 aéroports (messages METAR et TAF).

Les stations disponibles sont représentées par des disques jaunes et rouges sur la carte.

Passer la souris dessus pour voir le nom de la station.

Cliquer dessus pour voir les observations et prévisions météorologiques.

Pour changer de carte: cliquez sur les boutons verts avec une croix noire pour zoomer, sur le bouton vert avec un tiret pour effectuer un zoom arrière, ou sur les flèches vertes pour les cartes adjacentes.


METAR-TAF: